Time;durP1;ratioP1;P1;durP2;ratioP2;P2;SDS_P1;SDS_P2;PMS_P1;PMS_P2;Temp;Humidity;BMP_temperature;BMP_pressure;BME280_temperature;BME280_humidity;BME280_pressure;Samples;Min_cycle;Max_cycle;Signal;HPM_P1;HPM_P2
2023/01/10 00:00:25;;;;;;;15.50;2.85;;;6.60;99.90;;;;;;5033862;28;20188;-79
2023/01/10 00:02:51;;;;;;;14.85;3.05;;;6.50;99.90;;;;;;5021914;28;20267;-77
2023/01/10 00:05:18;;;;;;;14.80;3.08;;;6.50;99.90;;;;;;5021822;28;20302;-77
2023/01/10 00:07:44;;;;;;;17.77;3.20;;;6.50;99.90;;;;;;5050241;28;20350;-80
2023/01/10 00:10:11;;;;;;;22.52;3.42;;;6.50;99.90;;;;;;5051843;28;20188;-77
2023/01/10 00:15:21;;;;;;;21.40;3.25;;;6.50;99.90;;;;;;5018878;28;20270;-80
2023/01/10 00:17:47;;;;;;;17.02;3.53;;;6.40;99.90;;;;;;5018881;28;20658;-79
2023/01/10 00:20:13;;;;;;;19.48;3.75;;;6.40;99.90;;;;;;5019949;28;21326;-78
2023/01/10 00:22:38;;;;;;;18.15;3.88;;;6.40;99.90;;;;;;5048040;28;20195;-79
2023/01/10 00:25:05;;;;;;;23.77;3.72;;;6.40;99.90;;;;;;5032590;28;21127;-81
2023/01/10 00:27:30;;;;;;;25.30;3.78;;;6.40;99.90;;;;;;5012055;28;20234;-78
2023/01/10 00:29:59;;;;;;;23.73;3.85;;;6.40;99.90;;;;;;5030278;28;20556;-77
2023/01/10 00:32:25;;;;;;;14.93;3.17;;;6.40;99.90;;;;;;5031784;28;20188;-79
2023/01/10 00:34:51;;;;;;;19.35;3.67;;;6.30;99.90;;;;;;5031870;28;20248;-79
2023/01/10 00:37:17;;;;;;;24.92;3.90;;;6.40;99.90;;;;;;5013261;28;20647;-79
2023/01/10 00:39:43;;;;;;;24.20;3.83;;;6.30;99.90;;;;;;5031177;28;20596;-78
2023/01/10 00:44:55;;;;;;;17.58;3.30;;;6.40;99.90;;;;;;5018885;28;20191;-78
2023/01/10 00:47:20;;;;;;;28.60;3.72;;;6.40;99.90;;;;;;5017103;28;20215;-82
2023/01/10 00:49:46;;;;;;;18.88;3.40;;;6.40;99.90;;;;;;5046949;28;20183;-83
2023/01/10 00:52:12;;;;;;;21.05;3.40;;;6.40;99.90;;;;;;5036059;28;20246;-78
2023/01/10 00:54:38;;;;;;;22.58;3.22;;;6.50;99.90;;;;;;5022864;28;20289;-79
2023/01/10 00:57:03;;;;;;;17.95;3.15;;;6.40;99.90;;;;;;5022310;28;20212;-78
2023/01/10 00:59:29;;;;;;;22.27;3.80;;;6.50;99.90;;;;;;5037430;28;20728;-79
2023/01/10 01:01:55;;;;;;;21.80;3.45;;;6.50;99.90;;;;;;5023455;28;20202;-81
2023/01/10 01:04:21;;;;;;;20.67;3.58;;;6.50;99.90;;;;;;5024105;28;20762;-76
2023/01/10 01:06:47;;;;;;;18.65;3.40;;;6.50;99.90;;;;;;5032529;28;20730;-80
2023/01/10 01:09:14;;;;;;;23.75;3.58;;;6.50;99.90;;;;;;5020519;28;20196;-81
2023/01/10 01:11:40;;;;;;;26.73;3.60;;;6.50;99.90;;;;;;5020350;28;20778;-81
2023/01/10 01:14:05;;;;;;;18.17;3.40;;;6.60;99.90;;;;;;5017678;28;20314;-78
2023/01/10 01:16:31;;;;;;;30.50;3.55;;;6.60;99.90;;;;;;5028734;28;20238;-78
2023/01/10 01:18:57;;;;;;;21.30;3.30;;;6.70;99.90;;;;;;5030853;28;20191;-81
2023/01/10 01:21:27;;;;;;;23.00;3.10;;;6.70;99.90;;;;;;5016302;28;20678;-79
2023/01/10 01:23:55;;;;;;;20.00;3.65;;;6.70;99.90;;;;;;5017193;28;20184;-78
2023/01/10 01:26:25;;;;;;;19.05;3.47;;;6.70;99.90;;;;;;5030615;28;20207;-81
2023/01/10 01:28:51;;;;;;;26.02;3.25;;;6.70;99.90;;;;;;5017058;28;20184;-82
2023/01/10 01:31:17;;;;;;;33.28;4.18;;;6.70;99.90;;;;;;5014756;28;20195;-78
2023/01/10 01:33:42;;;;;;;28.98;3.92;;;6.70;99.90;;;;;;5048343;28;20588;-80
2023/01/10 01:36:10;;;;;;;24.20;3.28;;;6.70;99.90;;;;;;5027928;28;20229;-79
2023/01/10 01:38:37;;;;;;;22.60;3.28;;;6.70;99.90;;;;;;5012182;28;20183;-77
2023/01/10 01:41:03;;;;;;;27.45;3.78;;;6.70;99.90;;;;;;4998170;28;20176;-77
2023/01/10 01:43:33;;;;;;;21.80;3.50;;;6.70;99.90;;;;;;5048804;28;20210;-78
2023/01/10 01:46:01;;;;;;;23.00;3.50;;;6.70;99.90;;;;;;5029301;28;20211;-78
2023/01/10 01:48:38;;;;;;;29.42;4.15;;;6.70;99.90;;;;;;5010780;28;20191;-79
2023/01/10 01:51:14;;;;;;;25.13;3.50;;;6.70;99.90;;;;;;5016950;28;20253;-81
2023/01/10 01:53:49;;;;;;;24.55;3.58;;;6.70;99.90;;;;;;5032190;28;20194;-78
2023/01/10 01:56:21;;;;;;;21.52;3.50;;;6.70;99.90;;;;;;5016597;28;20183;-82
2023/01/10 01:58:59;;;;;;;25.85;3.92;;;6.80;99.90;;;;;;5016267;28;20180;-82
2023/01/10 02:01:26;;;;;;;26.85;3.47;;;6.70;99.90;;;;;;5016243;28;20310;-82
2023/01/10 02:04:06;;;;;;;17.70;3.38;;;6.70;99.90;;;;;;5019164;28;20184;-82
2023/01/10 02:06:31;;;;;;;19.60;3.30;;;6.70;99.90;;;;;;5015970;28;20207;-79
2023/01/10 02:09:16;;;;;;;20.35;3.60;;;6.70;99.90;;;;;;5015069;28;20191;-82
2023/01/10 02:11:42;;;;;;;27.92;3.50;;;6.70;99.90;;;;;;5014521;28;20188;-81
2023/01/10 02:14:10;;;;;;;19.65;3.47;;;6.70;99.90;;;;;;5018409;28;20211;-80
2023/01/10 02:16:36;;;;;;;26.52;3.85;;;6.70;99.90;;;;;;5014780;28;20421;-82
2023/01/10 02:19:12;;;;;;;24.60;3.55;;;6.80;99.90;;;;;;5016297;28;20951;-79
2023/01/10 02:22:22;;;;;;;22.85;3.17;;;6.70;99.90;;;;;;5014971;28;20172;-79
2023/01/10 02:25:00;;;;;;;23.45;3.28;;;6.70;99.90;;;;;;5003777;28;20211;-84
2023/01/10 02:27:54;;;;;;;27.88;3.72;;;6.70;99.90;;;;;;5029684;28;20322;-79
2023/01/10 02:30:51;;;;;;;23.20;3.55;;;6.80;99.90;;;;;;5012607;28;20187;-82
2023/01/10 02:33:24;;;;;;;24.83;3.80;;;6.70;99.90;;;;;;5031882;28;20212;-78
2023/01/10 02:36:09;;;;;;;19.67;3.40;;;6.70;99.90;;;;;;5032591;28;20640;-78
2023/01/10 02:38:56;;;;;;;26.40;3.40;;;6.80;99.90;;;;;;5029952;28;20271;-79
2023/01/10 02:41:32;;;;;;;18.02;3.17;;;6.80;99.90;;;;;;5017676;28;20183;-79
2023/01/10 02:44:16;;;;;;;20.48;3.90;;;6.80;99.90;;;;;;5032428;28;20190;-79
2023/01/10 02:46:44;;;;;;;21.95;3.83;;;6.80;99.90;;;;;;5019157;28;20195;-79
2023/01/10 02:49:10;;;;;;;20.52;3.28;;;6.80;99.90;;;;;;5014849;28;20230;-82
2023/01/10 02:51:36;;;;;;;16.90;3.25;;;6.80;99.90;;;;;;5017601;28;21147;-81
2023/01/10 02:54:18;;;;;;;25.90;3.75;;;6.80;99.90;;;;;;5019295;28;20195;-78
2023/01/10 02:56:50;;;;;;;25.27;3.10;;;6.80;99.90;;;;;;5016058;28;20215;-78
2023/01/10 02:59:36;;;;;;;20.15;3.40;;;6.80;99.90;;;;;;5030325;28;20186;-81
2023/01/10 03:02:32;;;;;;;17.50;3.22;;;6.80;99.90;;;;;;5039643;28;20183;-79
2023/01/10 03:05:23;;;;;;;22.92;3.38;;;6.70;99.90;;;;;;5024879;28;20195;-81
2023/01/10 03:07:48;;;;;;;25.95;3.78;;;6.80;99.90;;;;;;5031079;28;20262;-82
2023/01/10 03:10:17;;;;;;;23.17;3.42;;;6.80;99.90;;;;;;5019744;28;20180;-80
2023/01/10 03:12:45;;;;;;;26.05;3.53;;;6.70;99.90;;;;;;5013475;28;20193;-78
2023/01/10 03:15:15;;;;;;;25.40;3.50;;;6.70;99.90;;;;;;5032949;28;20322;-78
2023/01/10 03:17:45;;;;;;;20.95;3.42;;;6.70;99.90;;;;;;5031415;28;20176;-79
2023/01/10 03:20:11;;;;;;;28.90;4.32;;;6.70;99.90;;;;;;5015632;28;20179;-79
2023/01/10 03:22:39;;;;;;;24.30;3.38;;;6.70;99.90;;;;;;5017427;28;20210;-80
2023/01/10 03:25:10;;;;;;;23.27;3.67;;;6.70;99.90;;;;;;5032558;28;20271;-83
2023/01/10 03:27:48;;;;;;;17.55;3.55;;;6.70;99.90;;;;;;5030641;28;20215;-83
2023/01/10 03:30:25;;;;;;;22.17;3.10;;;6.70;99.90;;;;;;5031348;28;20187;-80
2023/01/10 03:32:53;;;;;;;25.05;3.33;;;6.70;99.90;;;;;;5017014;28;20218;-78
2023/01/10 03:35:21;;;;;;;21.05;3.47;;;6.70;99.90;;;;;;5018907;28;20258;-82
2023/01/10 03:37:57;;;;;;;17.38;3.13;;;6.70;99.90;;;;;;5017264;28;20219;-78
2023/01/10 03:40:44;;;;;;;13.90;3.33;;;6.70;99.90;;;;;;5031527;28;20646;-80
2023/01/10 03:46:28;;;;;;;16.92;3.00;;;6.80;99.90;;;;;;5032955;28;20776;-83
2023/01/10 03:48:55;;;;;;;20.15;3.53;;;6.80;99.90;;;;;;5033351;28;20179;-82
2023/01/10 03:51:22;;;;;;;23.63;4.00;;;6.80;99.90;;;;;;5017700;28;21254;-83
2023/01/10 03:53:48;;;;;;;23.85;3.22;;;6.90;99.90;;;;;;5018664;28;20195;-78
2023/01/10 03:56:14;;;;;;;16.73;3.47;;;6.90;99.90;;;;;;5031879;28;20637;-78
2023/01/10 03:58:40;;;;;;;14.65;2.90;;;6.90;99.90;;;;;;5018693;28;20620;-79
2023/01/10 04:01:06;;;;;;;22.63;3.92;;;6.90;99.90;;;;;;5031640;28;20249;-78
2023/01/10 04:03:31;;;;;;;18.65;2.92;;;7.00;99.90;;;;;;5036083;28;20902;-77
2023/01/10 04:05:57;;;;;;;21.05;3.47;;;7.00;99.90;;;;;;5001631;28;20191;-79
2023/01/10 04:08:23;;;;;;;20.90;3.75;;;7.00;99.90;;;;;;5051045;28;20230;-82
2023/01/10 04:10:49;;;;;;;19.55;3.33;;;7.00;99.90;;;;;;5018883;28;20191;-80
2023/01/10 04:13:15;;;;;;;21.23;3.30;;;7.00;99.90;;;;;;5021876;28;20204;-78
2023/01/10 04:15:41;;;;;;;21.40;3.30;;;7.00;99.90;;;;;;5046772;28;20232;-81
2023/01/10 04:18:06;;;;;;;18.48;3.35;;;6.90;99.90;;;;;;5020234;28;20200;-83
2023/01/10 04:20:32;;;;;;;21.92;3.60;;;6.90;99.90;;;;;;5053091;28;20242;-79
2023/01/10 04:22:58;;;;;;;25.60;3.92;;;6.90;99.90;;;;;;5016966;28;20180;-79
2023/01/10 04:25:24;;;;;;;19.55;3.03;;;6.90;99.90;;;;;;5022496;28;20213;-78
2023/01/10 04:27:51;;;;;;;20.30;3.15;;;6.90;99.90;;;;;;5020525;28;20766;-80
2023/01/10 04:30:18;;;;;;;20.85;3.78;;;6.90;99.90;;;;;;5021587;28;20679;-78
2023/01/10 04:32:43;;;;;;;16.42;3.50;;;6.90;99.90;;;;;;5050196;28;20202;-81
2023/01/10 04:35:09;;;;;;;22.05;3.85;;;6.90;99.90;;;;;;5032812;28;20196;-77
2023/01/10 04:37:36;;;;;;;20.17;3.65;;;6.90;99.90;;;;;;5030420;28;20554;-78
2023/01/10 04:40:03;;;;;;;20.33;3.70;;;6.90;99.90;;;;;;5017314;28;20191;-77
2023/01/10 04:42:29;;;;;;;17.83;3.33;;;6.90;99.90;;;;;;5030873;28;20452;-79
2023/01/10 04:44:55;;;;;;;19.80;3.63;;;6.90;99.90;;;;;;5030050;28;20194;-80
2023/01/10 04:47:20;;;;;;;21.23;3.78;;;6.90;99.90;;;;;;5015377;28;20215;-78
2023/01/10 04:49:46;;;;;;;21.95;3.78;;;6.90;99.90;;;;;;5049612;28;20192;-81
2023/01/10 04:52:12;;;;;;;20.48;4.05;;;6.90;99.90;;;;;;5016722;28;20248;-79
2023/01/10 04:54:37;;;;;;;15.85;3.20;;;6.90;99.90;;;;;;5028233;28;20228;-82
2023/01/10 04:57:05;;;;;;;20.65;3.47;;;6.80;99.90;;;;;;5029366;28;20308;-80
2023/01/10 04:59:31;;;;;;;19.35;3.53;;;6.90;99.90;;;;;;5023436;28;21162;-78
2023/01/10 05:01:57;;;;;;;17.77;3.42;;;6.90;99.90;;;;;;5045297;28;20191;-84
2023/01/10 05:04:24;;;;;;;21.38;3.15;;;6.90;99.90;;;;;;5030219;28;20295;-78
2023/01/10 05:06:49;;;;;;;19.90;3.72;;;6.90;99.90;;;;;;5020301;28;20217;-78
2023/01/10 05:09:15;;;;;;;20.17;3.78;;;6.90;99.90;;;;;;5020468;28;20248;-80
2023/01/10 05:11:41;;;;;;;27.10;3.40;;;6.90;99.90;;;;;;5019786;28;20310;-82
2023/01/10 05:14:07;;;;;;;22.50;3.80;;;6.90;99.90;;;;;;5031179;28;20295;-80
2023/01/10 05:16:35;;;;;;;16.05;3.58;;;6.90;99.90;;;;;;5051474;28;20235;-77
2023/01/10 05:19:01;;;;;;;21.38;3.67;;;6.90;99.90;;;;;;5032218;28;20245;-76
2023/01/10 05:21:27;;;;;;;20.08;3.28;;;6.90;99.90;;;;;;5050873;28;20184;-81
2023/01/10 05:23:52;;;;;;;20.80;3.75;;;6.80;99.90;;;;;;5020625;28;20658;-77
2023/01/10 05:26:22;;;;;;;22.33;3.97;;;6.80;99.90;;;;;;5012482;28;20289;-80
2023/01/10 05:28:48;;;;;;;19.25;3.60;;;6.90;99.90;;;;;;5017768;28;20664;-78
2023/01/10 05:31:15;;;;;;;20.60;3.75;;;6.90;99.90;;;;;;5015017;28;20195;-82
2023/01/10 05:33:49;;;;;;;20.88;3.28;;;6.90;99.90;;;;;;5017864;28;20203;-78
2023/01/10 05:36:15;;;;;;;19.65;3.58;;;6.90;99.90;;;;;;5017712;28;20179;-82
2023/01/10 05:38:41;;;;;;;18.10;3.67;;;6.90;99.90;;;;;;5016834;28;20263;-78
2023/01/10 05:41:07;;;;;;;20.05;3.70;;;6.90;99.90;;;;;;5016137;28;20180;-80
2023/01/10 05:43:34;;;;;;;21.83;3.40;;;6.90;99.90;;;;;;5017348;28;20624;-78
2023/01/10 05:46:00;;;;;;;14.98;3.50;;;7.00;99.90;;;;;;5018105;28;20196;-83
2023/01/10 05:48:25;;;;;;;19.80;3.55;;;6.90;99.90;;;;;;5018305;28;20199;-80
2023/01/10 05:50:51;;;;;;;23.48;3.42;;;7.00;99.90;;;;;;5050109;28;20192;-79
2023/01/10 05:53:18;;;;;;;19.00;3.70;;;7.00;99.90;;;;;;4997330;28;20214;-80
2023/01/10 05:55:52;;;;;;;22.73;3.88;;;7.00;99.90;;;;;;5013608;28;20176;-80
2023/01/10 05:58:18;;;;;;;15.52;3.25;;;7.00;99.90;;;;;;5016138;28;20263;-89
2023/01/10 06:00:43;;;;;;;14.35;3.33;;;7.00;99.90;;;;;;5016038;28;20192;-83
2023/01/10 06:03:09;;;;;;;14.15;3.08;;;7.00;99.90;;;;;;5053336;28;20607;-77
2023/01/10 06:05:35;;;;;;;19.33;3.13;;;7.00;99.90;;;;;;5017583;28;20640;-78
2023/01/10 06:08:01;;;;;;;15.05;3.30;;;7.00;99.90;;;;;;5051122;28;20216;-80
2023/01/10 06:10:26;;;;;;;13.73;3.10;;;7.00;99.90;;;;;;5014434;28;20203;-77
2023/01/10 06:12:52;;;;;;;11.35;2.83;;;7.00;99.90;;;;;;5017074;28;20279;-76
2023/01/10 06:15:18;;;;;;;14.93;3.22;;;7.00;99.90;;;;;;5022199;28;20691;-80
2023/01/10 06:17:44;;;;;;;13.52;3.22;;;7.00;99.90;;;;;;5032752;28;20245;-78
2023/01/10 06:20:11;;;;;;;20.80;2.85;;;6.90;99.90;;;;;;5053424;28;20604;-77
2023/01/10 06:22:41;;;;;;;10.88;2.92;;;6.90;99.90;;;;;;5031230;28;21139;-80
2023/01/10 06:25:07;;;;;;;12.65;3.40;;;6.90;99.90;;;;;;5018612;28;20187;-77
2023/01/10 06:27:33;;;;;;;13.35;2.95;;;6.90;99.90;;;;;;5053193;28;20230;-78
2023/01/10 06:30:00;;;;;;;14.65;2.85;;;6.90;99.90;;;;;;5021036;28;20314;-77
2023/01/10 06:32:26;;;;;;;19.00;3.13;;;6.90;99.90;;;;;;5014751;28;20212;-79
2023/01/10 06:34:52;;;;;;;10.65;2.40;;;6.90;99.90;;;;;;5036986;28;20191;-80
2023/01/10 06:37:18;;;;;;;12.05;2.63;;;6.80;99.90;;;;;;5032134;28;20249;-77
2023/01/10 06:39:45;;;;;;;12.93;2.90;;;6.80;99.90;;;;;;5020662;28;20183;-80
2023/01/10 06:42:11;;;;;;;15.60;2.83;;;6.80;99.90;;;;;;5018267;28;20267;-78
2023/01/10 06:44:37;;;;;;;10.55;2.90;;;6.80;99.90;;;;;;5020813;28;20184;-78
2023/01/10 06:47:03;;;;;;;13.85;3.15;;;6.80;99.90;;;;;;5035840;28;20203;-77
2023/01/10 06:49:29;;;;;;;11.95;2.50;;;6.80;99.90;;;;;;5052058;28;20215;-76
2023/01/10 06:51:55;;;;;;;12.95;2.70;;;6.80;99.90;;;;;;5023346;28;20180;-82
2023/01/10 06:54:21;;;;;;;14.45;3.00;;;6.70;99.90;;;;;;5023322;28;20192;-78
2023/01/10 06:56:47;;;;;;;20.73;2.70;;;6.70;99.90;;;;;;5054981;28;20207;-78
2023/01/10 06:59:13;;;;;;;12.05;2.55;;;6.70;99.90;;;;;;5022839;28;20188;-79
2023/01/10 07:01:39;;;;;;;13.48;3.33;;;6.70;99.90;;;;;;5033590;28;20192;-78
2023/01/10 07:04:05;;;;;;;12.68;2.55;;;6.70;99.90;;;;;;5022639;28;20242;-81
2023/01/10 07:06:31;;;;;;;14.68;2.97;;;6.70;99.90;;;;;;5054678;28;21177;-80
2023/01/10 07:08:57;;;;;;;13.88;3.03;;;6.70;99.90;;;;;;5022431;28;20192;-81
2023/01/10 07:11:23;;;;;;;15.57;3.35;;;6.60;99.90;;;;;;5034400;28;20184;-78
2023/01/10 07:13:50;;;;;;;15.65;2.70;;;6.60;99.90;;;;;;5022084;28;20251;-77
2023/01/10 07:16:15;;;;;;;10.63;2.78;;;6.60;99.90;;;;;;5034141;28;20319;-78
2023/01/10 07:18:42;;;;;;;10.38;3.00;;;6.60;99.90;;;;;;5035323;28;20641;-77
2023/01/10 07:21:09;;;;;;;12.32;3.20;;;6.70;99.90;;;;;;5025146;28;20557;-80
2023/01/10 07:23:35;;;;;;;15.00;3.38;;;6.70;99.90;;;;;;5021500;28;20180;-77
2023/01/10 07:26:06;;;;;;;19.77;3.65;;;6.70;99.90;;;;;;5050172;28;20191;-80
2023/01/10 07:28:35;;;;;;;19.73;3.75;;;6.70;99.90;;;;;;5021675;28;20246;-79
2023/01/10 07:31:03;;;;;;;20.20;4.00;;;6.80;99.90;;;;;;5019371;28;20219;-80
2023/01/10 07:33:30;;;;;;;25.60;3.90;;;6.80;99.90;;;;;;5019445;28;20202;-77
2023/01/10 07:35:56;;;;;;;21.35;4.13;;;6.80;99.90;;;;;;5033697;28;20727;-79
2023/01/10 07:38:22;;;;;;;21.13;3.90;;;6.80;99.90;;;;;;5032556;28;20230;-80
2023/01/10 07:40:48;;;;;;;20.65;4.60;;;6.80;99.90;;;;;;5019014;28;20191;-82
2023/01/10 07:43:14;;;;;;;20.17;4.03;;;6.80;99.90;;;;;;5052490;28;20188;-79
2023/01/10 07:45:39;;;;;;;22.52;4.10;;;6.80;99.90;;;;;;5016471;28;20187;-77
2023/01/10 07:48:05;;;;;;;24.25;4.10;;;6.80;99.90;;;;;;5033295;28;20225;-83
2023/01/10 07:50:34;;;;;;;32.92;5.22;;;6.80;99.90;;;;;;5049976;28;20188;-78
2023/01/10 07:53:01;;;;;;;30.33;4.88;;;6.80;99.90;;;;;;5016410;28;20192;-77
2023/01/10 07:55:27;;;;;;;27.25;4.82;;;6.90;99.90;;;;;;5046984;28;20217;-81
2023/01/10 07:57:54;;;;;;;31.63;5.00;;;6.90;99.90;;;;;;5017555;28;20781;-80
2023/01/10 08:00:20;;;;;;;22.38;4.47;;;6.90;99.90;;;;;;5031874;28;20237;-80
2023/01/10 08:02:46;;;;;;;26.90;4.53;;;6.90;99.90;;;;;;5021263;28;20188;-76
2023/01/10 08:05:13;;;;;;;24.90;4.70;;;6.90;99.90;;;;;;5034275;28;20440;-83
2023/01/10 08:07:39;;;;;;;24.05;5.00;;;7.00;99.90;;;;;;5030013;28;20235;-80
2023/01/10 08:10:06;;;;;;;28.85;5.07;;;7.00;99.90;;;;;;5032653;28;21033;-79
2023/01/10 08:12:32;;;;;;;26.48;5.00;;;7.00;99.90;;;;;;5031083;28;20210;-82
2023/01/10 08:14:58;;;;;;;23.25;4.85;;;7.00;99.90;;;;;;5031321;28;20339;-81
2023/01/10 08:17:24;;;;;;;30.45;4.88;;;7.00;99.90;;;;;;5011889;28;20271;-80
2023/01/10 08:19:50;;;;;;;30.08;5.60;;;7.00;99.90;;;;;;5017585;28;20195;-84
2023/01/10 08:22:16;;;;;;;30.88;5.38;;;6.90;99.90;;;;;;5015370;28;20709;-78
2023/01/10 08:24:41;;;;;;;26.30;5.30;;;7.00;99.90;;;;;;5050128;28;20191;-82
2023/01/10 08:27:07;;;;;;;24.02;5.38;;;7.00;99.90;;;;;;5015746;28;20219;-80
2023/01/10 08:29:33;;;;;;;19.77;4.55;;;7.00;99.90;;;;;;5030622;28;20188;-83
2023/01/10 08:31:59;;;;;;;33.92;5.10;;;7.10;99.90;;;;;;5049471;28;20192;-79
2023/01/10 08:34:25;;;;;;;26.92;5.25;;;7.10;99.90;;;;;;5018434;28;20307;-79
2023/01/10 08:36:52;;;;;;;32.08;5.80;;;7.10;99.90;;;;;;5030509;28;20195;-80
2023/01/10 08:39:19;;;;;;;24.75;5.38;;;7.10;99.90;;;;;;5029349;28;20804;-83
2023/01/10 08:41:45;;;;;;;33.92;5.38;;;7.20;99.90;;;;;;5025029;28;20192;-84
2023/01/10 08:44:12;;;;;;;33.90;5.72;;;7.20;99.90;;;;;;5016168;28;21005;-82
2023/01/10 08:46:38;;;;;;;34.30;5.18;;;7.20;99.90;;;;;;5019645;28;20214;-78
2023/01/10 08:49:03;;;;;;;29.45;5.88;;;7.20;99.90;;;;;;5018699;28;20188;-81
2023/01/10 08:51:29;;;;;;;31.30;5.85;;;7.20;99.90;;;;;;5034829;28;20191;-82
2023/01/10 08:53:55;;;;;;;45.15;6.18;;;7.40;99.90;;;;;;5020129;28;20180;-81
2023/01/10 08:56:21;;;;;;;33.00;5.85;;;7.50;99.90;;;;;;5019385;28;20663;-76
2023/01/10 08:58:46;;;;;;;28.98;4.68;;;7.80;99.90;;;;;;5018133;28;20195;-79
2023/01/10 09:01:13;;;;;;;24.92;5.13;;;8.20;99.90;;;;;;5018623;28;20596;-84
2023/01/10 09:03:39;;;;;;;25.33;5.43;;;8.60;99.90;;;;;;5034720;28;20188;-78
2023/01/10 09:06:05;;;;;;;26.50;4.93;;;8.90;99.90;;;;;;5015600;28;20517;-77
2023/01/10 09:08:31;;;;;;;29.05;5.38;;;9.00;99.90;;;;;;5045893;28;20204;-80
2023/01/10 09:10:59;;;;;;;27.65;4.95;;;9.00;99.90;;;;;;5017803;28;21051;-78
2023/01/10 09:13:25;;;;;;;33.13;4.93;;;8.90;99.90;;;;;;5016179;28;20183;-82
2023/01/10 09:15:51;;;;;;;23.67;5.00;;;8.70;99.90;;;;;;5016112;28;20255;-78
2023/01/10 09:18:17;;;;;;;28.45;5.55;;;8.60;99.90;;;;;;5018879;28;20750;-82
2023/01/10 09:20:44;;;;;;;30.42;4.97;;;8.60;99.90;;;;;;5053233;28;20183;-78
2023/01/10 09:23:18;;;;;;;25.83;5.10;;;8.50;99.90;;;;;;5029798;28;20199;-79
2023/01/10 09:25:46;;;;;;;20.13;4.57;;;8.40;99.90;;;;;;5022822;28;20178;-77
2023/01/10 09:28:12;;;;;;;31.50;4.90;;;8.30;99.90;;;;;;5036285;28;20199;-79
2023/01/10 09:30:38;;;;;;;32.22;5.15;;;8.30;99.90;;;;;;5023989;28;20258;-79
2023/01/10 09:33:04;;;;;;;32.33;5.15;;;8.30;99.90;;;;;;5019531;28;22149;-79
2023/01/10 09:35:31;;;;;;;38.25;5.25;;;8.30;99.90;;;;;;5021316;28;20270;-79
2023/01/10 09:38:00;;;;;;;29.23;4.72;;;8.30;99.90;;;;;;5030033;28;20225;-82
2023/01/10 09:40:53;;;;;;;27.60;4.95;;;8.20;99.90;;;;;;5033988;28;20198;-80
2023/01/10 09:43:46;;;;;;;33.00;4.95;;;8.20;99.90;;;;;;5021169;28;20714;-78
2023/01/10 09:46:30;;;;;;;20.95;4.95;;;8.10;99.90;;;;;;5018192;28;20179;-78
2023/01/10 09:49:22;;;;;;;25.17;4.57;;;8.10;99.90;;;;;;5018198;28;20190;-78
2023/01/10 09:51:51;;;;;;;24.90;4.30;;;8.10;99.90;;;;;;5015730;28;20256;-78
2023/01/10 09:54:35;;;;;;;27.90;4.65;;;8.00;99.90;;;;;;5028633;28;20184;-80
2023/01/10 09:57:01;;;;;;;25.55;5.15;;;8.10;99.90;;;;;;5047902;28;20191;-82
2023/01/10 09:59:36;;;;;;;23.23;4.38;;;8.10;99.90;;;;;;5018807;28;20663;-80
2023/01/10 10:02:35;;;;;;;21.25;4.28;;;8.10;99.90;;;;;;5050703;28;20290;-78
2023/01/10 10:05:15;;;;;;;26.88;4.72;;;8.10;99.90;;;;;;5019762;28;20176;-78
2023/01/10 10:07:40;;;;;;;32.47;4.70;;;8.10;99.90;;;;;;5027335;28;20222;-80
2023/01/10 10:10:13;;;;;;;28.30;4.97;;;8.20;99.90;;;;;;5016883;28;20592;-81
2023/01/10 10:12:51;;;;;;;40.30;5.13;;;8.20;99.90;;;;;;5018505;28;20271;-79
2023/01/10 10:15:20;;;;;;;26.52;5.20;;;8.30;99.90;;;;;;5017866;28;20226;-81
2023/01/10 10:17:56;;;;;;;28.92;5.15;;;8.30;99.90;;;;;;5015793;28;20180;-78
2023/01/10 10:20:29;;;;;;;28.55;4.97;;;8.40;99.90;;;;;;5020372;28;20187;-80
2023/01/10 10:23:16;;;;;;;32.90;5.20;;;8.40;99.90;;;;;;5014045;28;20176;-78
2023/01/10 10:26:08;;;;;;;28.65;5.13;;;8.50;99.90;;;;;;5030357;28;20290;-78
2023/01/10 10:28:51;;;;;;;23.23;5.45;;;8.50;99.90;;;;;;5017303;28;20192;-79
2023/01/10 10:31:26;;;;;;;23.83;4.80;;;8.50;99.90;;;;;;5014898;28;20176;-79
2023/01/10 10:34:23;;;;;;;26.95;5.03;;;8.50;99.90;;;;;;5033361;28;20219;-80
2023/01/10 10:37:04;;;;;;;21.90;5.00;;;8.50;99.90;;;;;;5017905;28;20565;-83
2023/01/10 10:39:51;;;;;;;30.27;5.40;;;8.60;99.90;;;;;;5049156;28;20648;-78
2023/01/10 10:42:18;;;;;;;30.48;5.10;;;8.50;99.90;;;;;;5015952;28;20241;-83
2023/01/10 10:44:58;;;;;;;22.50;5.07;;;8.50;99.90;;;;;;5019843;28;20191;-81
2023/01/10 10:47:29;;;;;;;33.50;5.20;;;8.50;99.90;;;;;;5017248;28;20231;-77
2023/01/10 10:50:18;;;;;;;19.30;4.82;;;8.40;99.90;;;;;;5019785;28;20184;-79
2023/01/10 10:52:45;;;;;;;25.35;5.22;;;8.40;99.90;;;;;;5023692;28;20192;-80
2023/01/10 10:55:35;;;;;;;23.42;4.40;;;8.40;99.90;;;;;;5033166;28;20272;-80
2023/01/10 10:58:06;;;;;;;31.15;4.85;;;8.50;99.90;;;;;;5045113;28;20684;-78
2023/01/10 11:00:32;;;;;;;28.15;4.78;;;8.50;99.90;;;;;;5022267;28;20608;-78
2023/01/10 11:03:01;;;;;;;27.70;4.57;;;8.40;99.90;;;;;;5033083;28;20196;-77
2023/01/10 11:05:40;;;;;;;20.20;4.55;;;8.40;99.90;;;;;;5035114;28;20198;-78
2023/01/10 11:08:12;;;;;;;22.42;4.53;;;8.40;99.90;;;;;;5021314;28;20207;-79
2023/01/10 11:10:40;;;;;;;32.22;4.88;;;8.40;99.90;;;;;;5021479;28;20652;-79
2023/01/10 11:13:24;;;;;;;23.75;5.22;;;8.40;99.90;;;;;;5032558;28;20199;-83
2023/01/10 11:15:50;;;;;;;35.38;4.80;;;8.30;99.90;;;;;;5037273;28;20227;-79
2023/01/10 11:18:19;;;;;;;27.48;5.25;;;8.30;99.90;;;;;;5021441;28;20307;-77
2023/01/10 11:20:56;;;;;;;27.88;4.75;;;8.30;99.90;;;;;;5051701;28;20188;-78
2023/01/10 11:23:23;;;;;;;25.10;5.60;;;8.30;99.90;;;;;;5023068;28;20191;-78
2023/01/10 11:25:49;;;;;;;29.90;5.65;;;8.30;99.90;;;;;;5019663;28;20199;-81
2023/01/10 11:28:17;;;;;;;34.78;7.15;;;8.30;99.90;;;;;;5032730;28;20228;-80
2023/01/10 11:30:47;;;;;;;27.27;6.53;;;8.40;99.90;;;;;;5033543;28;20180;-81
2023/01/10 11:33:24;;;;;;;31.65;7.10;;;8.40;99.90;;;;;;5017241;28;20200;-81
2023/01/10 11:36:04;;;;;;;30.98;7.10;;;8.40;99.90;;;;;;5018962;28;20652;-78
2023/01/10 11:38:31;;;;;;;28.17;6.72;;;8.40;99.90;;;;;;5018231;28;20293;-78
2023/01/10 11:41:03;;;;;;;40.17;7.75;;;8.40;99.90;;;;;;5032614;28;20532;-79
2023/01/10 11:43:35;;;;;;;29.40;7.43;;;8.40;99.90;;;;;;5022307;28;20188;-78
2023/01/10 11:46:05;;;;;;;40.50;8.30;;;8.40;99.90;;;;;;5019533;28;20651;-78
2023/01/10 11:48:45;;;;;;;31.58;7.80;;;8.40;99.90;;;;;;5022287;28;20196;-81
2023/01/10 11:51:23;;;;;;;41.03;8.55;;;8.40;99.90;;;;;;5018765;28;20644;-78
2023/01/10 11:53:57;;;;;;;32.58;8.88;;;8.40;99.90;;;;;;5019724;28;20184;-79
2023/01/10 11:56:31;;;;;;;30.08;8.35;;;8.40;99.90;;;;;;5018363;28;20183;-85
2023/01/10 11:59:06;;;;;;;37.38;9.20;;;8.40;99.90;;;;;;5018712;28;20184;-78
2023/01/10 12:01:42;;;;;;;34.00;8.40;;;8.30;99.90;;;;;;5019051;28;20187;-78
2023/01/10 12:04:14;;;;;;;37.22;9.60;;;8.30;99.90;;;;;;5020483;28;20171;-81
2023/01/10 12:06:52;;;;;;;28.05;8.10;;;8.30;99.90;;;;;;5044751;28;20668;-81
2023/01/10 12:09:41;;;;;;;39.00;9.35;;;8.30;99.90;;;;;;5018327;28;20188;-77
2023/01/10 12:12:18;;;;;;;32.55;9.10;;;8.30;99.90;;;;;;5019652;28;20176;-78
2023/01/10 12:14:45;;;;;;;33.17;8.65;;;8.20;99.90;;;;;;5031343;28;20186;-79
2023/01/10 12:17:33;;;;;;;33.03;8.75;;;8.20;99.90;;;;;;5017194;28;20704;-79
2023/01/10 12:20:01;;;;;;;35.50;8.45;;;8.20;99.90;;;;;;5032371;28;20186;-79
2023/01/10 12:22:34;;;;;;;28.23;8.65;;;8.20;99.90;;;;;;5029736;28;20549;-80
2023/01/10 12:25:05;;;;;;;33.72;8.85;;;8.20;99.90;;;;;;5031578;28;20188;-80
2023/01/10 12:27:32;;;;;;;31.83;7.65;;;8.10;99.90;;;;;;5052404;28;20773;-79
2023/01/10 12:30:05;;;;;;;32.75;7.90;;;8.20;99.90;;;;;;5023356;28;20275;-78
2023/01/10 12:32:40;;;;;;;32.00;8.25;;;8.10;99.90;;;;;;5016748;28;20172;-77
2023/01/10 12:35:14;;;;;;;27.60;7.88;;;8.20;99.90;;;;;;5018136;28;20222;-81
2023/01/10 12:37:50;;;;;;;32.47;8.05;;;8.20;99.90;;;;;;5029528;28;20282;-80
2023/01/10 12:40:38;;;;;;;26.73;8.18;;;8.10;99.90;;;;;;5032047;28;20191;-79
2023/01/10 12:46:20;;;;;;;34.10;8.88;;;8.10;99.90;;;;;;5016389;28;20183;-81
2023/01/10 12:49:03;;;;;;;29.05;8.70;;;8.10;99.90;;;;;;5050959;28;20195;-78
2023/01/10 12:51:29;;;;;;;34.80;9.57;;;8.10;99.90;;;;;;5028418;28;20195;-84
2023/01/10 12:54:18;;;;;;;29.60;8.88;;;8.10;99.90;;;;;;5015840;28;20648;-78
2023/01/10 12:56:46;;;;;;;39.95;8.55;;;8.10;99.90;;;;;;5028500;28;20274;-78
2023/01/10 12:59:36;;;;;;;35.90;7.75;;;8.00;99.90;;;;;;5018575;28;20234;-78
2023/01/10 13:02:06;;;;;;;35.40;8.10;;;8.00;99.90;;;;;;5016677;28;20662;-79
2023/01/10 13:04:35;;;;;;;31.98;8.13;;;8.00;99.90;;;;;;5018064;28;20255;-77
2023/01/10 13:07:02;;;;;;;33.40;7.68;;;8.00;99.90;;;;;;5016582;28;20200;-80
2023/01/10 13:09:29;;;;;;;31.88;7.68;;;8.00;99.90;;;;;;5034776;28;20200;-82
2023/01/10 13:12:05;;;;;;;25.42;6.80;;;8.00;99.90;;;;;;5050919;28;20369;-80
2023/01/10 13:14:41;;;;;;;31.23;7.35;;;8.00;99.90;;;;;;5012768;28;20204;-81